F/V Le Natif 2 — FKVW — position and weather

sailwx.info

Track history (hours):
 
Tides and Currents Weather Stations Pressure Air Temp Water Temp Dewpoint Dewpoint Depression Visibility Wind Speed Wind Dir Waves Ship Positions

F/V Le Natif 2

Last reported at 2014-Jul-28 03:29 UTC. Time now 2014-Jul-28 16:30 UTC.
Position N 46°44' W 002°10'.

Length 16 m.

Type: Fishing. MMSI: 228131600.

Date/timePositionNaut miles runAvg speedWind from/ knotsBaromVisibWave heightAir tempDewpointWater temp
2014-Jul-28 03:29N 46°44' W 002°10'8 9.0
2014-Jul-28 02:33N 46°41' W 001°58'1 0.2
2014-Jul-27 18:28N 46°42' W 001°57'0 0.1
2014-Jul-27 17:33N 46°42' W 001°56'0 0.0
2014-Jul-27 16:33N 46°42' W 001°56'3 2.9
2014-Jul-27 15:33N 46°41' W 002°01'10 9.6
2014-Jul-27 14:33N 46°44' W 002°14'1010.2
2014-Jul-27 13:33N 46°48' W 002°28'17 5.7
2014-Jul-27 10:30N 46°54' W 002°52'1 0.9
2014-Jul-27 09:19N 46°55' W 002°53'6 2.3
2014-Jul-27 06:32N 46°51' W 002°46'8 8.3
2014-Jul-27 05:32N 46°47' W 002°35'9 8.6
2014-Jul-27 04:30N 46°46' W 002°22'8 8.1
2014-Jul-27 03:32N 46°44' W 002°11'8 8.5
2014-Jul-27 02:34N 46°41' W 001°60'2 0.1
2014-Jul-25 15:19N 46°42' W 001°57'0 0.0
2014-Jul-25 14:33N 46°42' W 001°57'0 0.0
2014-Jul-23 23:33N 46°42' W 001°57'0 0.0
2014-Jul-23 22:33N 46°42' W 001°57'3 3.2
2014-Jul-23 21:33N 46°41' W 002°01'9 9.2
2014-Jul-23 20:33N 46°40' W 002°14'5 0.3
2014-Jul-23 03:31N 46°40' W 002°07'7 7.5
2014-Jul-23 02:33N 46°42' W 001°57'0 0.0
2014-Jul-23 01:33N 46°42' W 001°57'0 0.0
2014-Jul-23 00:33N 46°42' W 001°57'0 0.1
2014-Jul-22 23:33N 46°42' W 001°56'8 8.1
2014-Jul-22 22:33N 46°40' W 002°08'28 6.6
2014-Jul-22 18:18N 46°43' W 002°49'0 0.3
2014-Jul-22 17:32N 46°43' W 002°48'8 0.7
2014-Jul-22 06:10N 46°50' W 002°40'9 8.5
2014-Jul-22 05:04N 46°47' W 002°27'5 9.2
2014-Jul-22 04:32N 46°46' W 002°20'9 9.0
2014-Jul-22 03:33N 46°43' W 002°08'8 8.1
2014-Jul-22 02:33N 46°42' W 001°57'0 0.0
2014-Jul-22 01:33N 46°42' W 001°57'0 0.0
2014-Jul-22 00:33N 46°42' W 001°57'0 0.1
2014-Jul-21 23:33N 46°42' W 001°56'7 7.1
2014-Jul-21 22:33N 46°39' W 002°06'8 6.0
2014-Jul-21 21:18N 46°38' W 002°17'4 5.7
2014-Jul-21 20:31N 46°38' W 002°24'  
2014-Jul-18 10:33N 46°42' W 001°56'0 0.0
2014-Jul-18 09:33N 46°42' W 001°56'0 0.0
2014-Jul-18 08:33N 46°42' W 001°56'0 0.0
2014-Jul-18 07:32N 46°42' W 001°56'0 0.1
2014-Jul-18 06:33N 46°42' W 001°57'0 0.0
2014-Jul-18 05:33N 46°42' W 001°57'  
Track history (hours):
 
Tides and Currents Weather Stations Pressure Air Temp Water Temp Dewpoint Dewpoint Depression Visibility Wind Speed Wind Dir Waves Ship Positions

F/V Le Natif 2

Last reported at 2014-Jul-28 03:29 UTC. Time now 2014-Jul-28 16:30 UTC.
Position N 46°44' W 002°10'.

Length 16 m.

Type: Fishing. MMSI: 228131600.

Date/timePositionNaut miles runAvg speedWind from/ knotsBaromVisibWave heightAir tempDewpointWater temp
2014-Jul-28 03:29N 46°44' W 002°10'8 9.0
2014-Jul-28 02:33N 46°41' W 001°58'1 0.2
2014-Jul-27 18:28N 46°42' W 001°57'0 0.1
2014-Jul-27 17:33N 46°42' W 001°56'0 0.0
2014-Jul-27 16:33N 46°42' W 001°56'3 2.9
2014-Jul-27 15:33N 46°41' W 002°01'10 9.6
2014-Jul-27 14:33N 46°44' W 002°14'1010.2
2014-Jul-27 13:33N 46°48' W 002°28'17 5.7
2014-Jul-27 10:30N 46°54' W 002°52'1 0.9
2014-Jul-27 09:19N 46°55' W 002°53'6 2.3
2014-Jul-27 06:32N 46°51' W 002°46'8 8.3
2014-Jul-27 05:32N 46°47' W 002°35'9 8.6
2014-Jul-27 04:30N 46°46' W 002°22'8 8.1
2014-Jul-27 03:32N 46°44' W 002°11'8 8.5
2014-Jul-27 02:34N 46°41' W 001°60'2 0.1
2014-Jul-25 15:19N 46°42' W 001°57'0 0.0
2014-Jul-25 14:33N 46°42' W 001°57'0 0.0
2014-Jul-23 23:33N 46°42' W 001°57'0 0.0
2014-Jul-23 22:33N 46°42' W 001°57'3 3.2
2014-Jul-23 21:33N 46°41' W 002°01'9 9.2
2014-Jul-23 20:33N 46°40' W 002°14'5 0.3
2014-Jul-23 03:31N 46°40' W 002°07'7 7.5
2014-Jul-23 02:33N 46°42' W 001°57'0 0.0
2014-Jul-23 01:33N 46°42' W 001°57'0 0.0
2014-Jul-23 00:33N 46°42' W 001°57'0 0.1
2014-Jul-22 23:33N 46°42' W 001°56'8 8.1
2014-Jul-22 22:33N 46°40' W 002°08'28 6.6
2014-Jul-22 18:18N 46°43' W 002°49'0 0.3
2014-Jul-22 17:32N 46°43' W 002°48'8 0.7
2014-Jul-22 06:10N 46°50' W 002°40'9 8.5
2014-Jul-22 05:04N 46°47' W 002°27'5 9.2
2014-Jul-22 04:32N 46°46' W 002°20'9 9.0
2014-Jul-22 03:33N 46°43' W 002°08'8 8.1
2014-Jul-22 02:33N 46°42' W 001°57'0 0.0
2014-Jul-22 01:33N 46°42' W 001°57'0 0.0
2014-Jul-22 00:33N 46°42' W 001°57'0 0.1
2014-Jul-21 23:33N 46°42' W 001°56'7 7.1
2014-Jul-21 22:33N 46°39' W 002°06'8 6.0
2014-Jul-21 21:18N 46°38' W 002°17'4 5.7
2014-Jul-21 20:31N 46°38' W 002°24'  
2014-Jul-18 10:33N 46°42' W 001°56'0 0.0
2014-Jul-18 09:33N 46°42' W 001°56'0 0.0
2014-Jul-18 08:33N 46°42' W 001°56'0 0.0
2014-Jul-18 07:32N 46°42' W 001°56'0 0.1
2014-Jul-18 06:33N 46°42' W 001°57'0 0.0
2014-Jul-18 05:33N 46°42' W 001°57'  

Dump ship's entire track history